createdAt,value
2022-08-26T00:00:21.195Z,20.61
2022-08-26T00:02:49.320Z,20.61
2022-08-26T00:05:17.671Z,20.63
2022-08-26T00:07:46.083Z,20.65
2022-08-26T00:10:14.220Z,20.65
2022-08-26T00:12:42.661Z,20.63
2022-08-26T00:15:14.307Z,20.58
2022-08-26T00:17:43.919Z,20.65
2022-08-26T00:20:14.439Z,20.59
2022-08-26T00:22:43.567Z,20.52
2022-08-26T00:25:13.494Z,20.47
2022-08-26T00:27:44.099Z,20.40
2022-08-26T00:30:15.207Z,20.37
2022-08-26T00:32:46.339Z,20.36
2022-08-26T00:35:15.310Z,20.30
2022-08-26T00:37:44.074Z,20.30
2022-08-26T00:40:16.200Z,20.30
2022-08-26T00:42:46.121Z,20.26
2022-08-26T00:45:15.409Z,20.23
2022-08-26T00:47:49.991Z,20.19
2022-08-26T00:50:23.263Z,20.17
2022-08-26T00:52:53.582Z,20.16
2022-08-26T00:55:27.489Z,20.09
2022-08-26T00:58:07.201Z,20.06
2022-08-26T01:00:35.755Z,20.02
2022-08-26T01:03:05.528Z,20.04
2022-08-26T01:05:36.035Z,20.00
2022-08-26T01:08:04.917Z,20.00
2022-08-26T01:10:33.089Z,20.01
2022-08-26T01:13:06.345Z,19.97
2022-08-26T01:15:38.166Z,19.97
2022-08-26T01:18:08.844Z,19.96
2022-08-26T01:20:47.372Z,19.91
2022-08-26T01:23:17.166Z,19.84
2022-08-26T01:25:49.842Z,19.81
2022-08-26T01:28:22.936Z,19.77
2022-08-26T01:30:54.279Z,19.75
2022-08-26T01:33:28.185Z,19.68
2022-08-26T01:35:56.697Z,19.69
2022-08-26T01:38:27.875Z,19.64
2022-08-26T01:41:01.270Z,19.61
2022-08-26T01:43:31.782Z,19.56
2022-08-26T01:46:00.562Z,19.55
2022-08-26T01:48:32.899Z,19.49
2022-08-26T01:51:02.057Z,19.43
2022-08-26T01:53:32.303Z,19.37
2022-08-26T01:56:03.135Z,19.35
2022-08-26T01:58:36.541Z,19.32
2022-08-26T02:01:06.368Z,19.31
2022-08-26T02:03:35.166Z,19.33
2022-08-26T02:06:10.251Z,19.35
2022-08-26T02:08:43.356Z,19.33
2022-08-26T02:11:11.995Z,19.30
2022-08-26T02:13:43.071Z,19.30
2022-08-26T02:16:12.229Z,19.22
2022-08-26T02:18:43.891Z,19.19
2022-08-26T02:21:15.169Z,19.20
2022-08-26T02:23:45.559Z,19.15
2022-08-26T02:26:18.066Z,19.15
2022-08-26T02:28:52.586Z,19.16
2022-08-26T02:31:20.766Z,19.14
2022-08-26T02:33:48.941Z,19.05
2022-08-26T02:36:21.579Z,19.05
2022-08-26T02:38:52.045Z,19.01
2022-08-26T02:41:20.455Z,18.98
2022-08-26T02:43:51.262Z,18.96
2022-08-26T02:46:21.472Z,18.95
2022-08-26T02:48:56.485Z,18.94
2022-08-26T02:51:24.584Z,18.95
2022-08-26T02:53:54.163Z,18.90
2022-08-26T02:56:23.803Z,18.90
2022-08-26T02:58:52.102Z,18.88
2022-08-26T03:01:24.125Z,18.88
2022-08-26T03:03:52.347Z,18.89
2022-08-26T03:06:20.488Z,18.96
2022-08-26T03:08:48.978Z,18.98
2022-08-26T03:11:19.191Z,18.93
2022-08-26T03:13:47.566Z,18.90
2022-08-26T03:16:16.121Z,18.84
2022-08-26T03:18:44.414Z,18.80
2022-08-26T03:21:21.164Z,18.79
2022-08-26T03:23:49.724Z,18.78
2022-08-26T03:26:19.597Z,18.78
2022-08-26T03:29:05.385Z,18.77
2022-08-26T03:31:33.577Z,18.77
2022-08-26T03:34:01.824Z,18.78
2022-08-26T03:36:30.157Z,18.76
2022-08-26T03:38:58.660Z,18.77
2022-08-26T03:41:28.261Z,18.82
2022-08-26T03:43:59.668Z,18.81
2022-08-26T03:46:29.799Z,18.84
2022-08-26T03:48:58.164Z,18.86
2022-08-26T03:51:27.480Z,18.87
2022-08-26T03:53:56.110Z,18.96
2022-08-26T03:56:25.286Z,19.00
2022-08-26T03:58:55.635Z,19.04
2022-08-26T04:01:24.485Z,19.02
2022-08-26T04:04:01.539Z,19.05
2022-08-26T04:06:33.254Z,19.07
2022-08-26T04:09:04.306Z,19.09
2022-08-26T04:11:34.236Z,19.14
2022-08-26T04:14:07.960Z,19.19
2022-08-26T04:16:37.099Z,19.22
2022-08-26T04:19:09.414Z,19.29
2022-08-26T04:21:38.395Z,19.43
2022-08-26T04:24:11.373Z,19.53
2022-08-26T04:26:42.845Z,19.70
2022-08-26T04:29:15.337Z,19.92
2022-08-26T04:31:43.912Z,20.35
2022-08-26T04:34:14.170Z,20.47
2022-08-26T04:36:43.620Z,20.68
2022-08-26T04:39:16.650Z,20.89
2022-08-26T04:41:47.217Z,21.61
2022-08-26T04:44:18.811Z,22.25
2022-08-26T04:46:46.967Z,23.08
2022-08-26T04:49:15.524Z,23.84
2022-08-26T04:51:43.856Z,24.49
2022-08-26T04:54:12.130Z,24.97
2022-08-26T04:56:42.772Z,25.39
2022-08-26T04:59:17.194Z,25.22
2022-08-26T05:01:50.413Z,26.09
2022-08-26T05:04:19.927Z,27.00
2022-08-26T05:06:48.564Z,27.41
2022-08-26T05:09:18.637Z,27.52
2022-08-26T05:11:48.439Z,27.80
2022-08-26T05:14:20.889Z,28.24
2022-08-26T05:16:50.476Z,28.54
2022-08-26T05:19:18.824Z,29.42
2022-08-26T05:21:47.951Z,30.21
2022-08-26T05:24:16.695Z,31.05
2022-08-26T05:26:45.404Z,30.77
2022-08-26T05:29:14.180Z,31.52
2022-08-26T05:31:43.273Z,32.22
2022-08-26T05:34:12.781Z,32.90
2022-08-26T05:36:41.459Z,32.20
2022-08-26T05:39:10.859Z,32.47
2022-08-26T05:41:41.834Z,33.26
2022-08-26T05:44:14.016Z,33.61
2022-08-26T05:46:44.896Z,33.43
2022-08-26T05:49:17.639Z,34.04
2022-08-26T05:51:47.696Z,34.40
2022-08-26T05:54:21.758Z,34.34
2022-08-26T05:56:50.539Z,34.23
2022-08-26T05:59:24.365Z,34.70
2022-08-26T06:01:53.383Z,35.09
2022-08-26T06:04:24.801Z,35.25
2022-08-26T06:06:57.020Z,35.04
2022-08-26T06:09:25.492Z,34.84
2022-08-26T06:11:53.700Z,34.57
2022-08-26T06:14:21.878Z,34.38
2022-08-26T06:16:50.580Z,34.17
2022-08-26T06:19:19.396Z,33.96
2022-08-26T06:21:53.957Z,32.78
2022-08-26T06:24:40.683Z,32.29
2022-08-26T06:27:11.339Z,33.16
2022-08-26T06:29:40.571Z,33.40
2022-08-26T06:32:09.016Z,33.63
2022-08-26T06:34:37.913Z,33.55
2022-08-26T06:37:07.480Z,34.06
2022-08-26T06:39:35.720Z,33.62
2022-08-26T06:42:11.996Z,33.53
2022-08-26T06:44:41.043Z,32.66
2022-08-26T06:47:09.457Z,33.28
2022-08-26T06:49:37.571Z,33.20
2022-08-26T06:52:07.416Z,32.01
2022-08-26T06:54:37.208Z,31.39
2022-08-26T06:57:07.712Z,31.25
2022-08-26T06:59:35.867Z,30.98
2022-08-26T07:02:06.283Z,30.65
2022-08-26T07:04:36.300Z,30.11
2022-08-26T07:07:04.432Z,30.49
2022-08-26T07:09:35.505Z,29.83
2022-08-26T07:12:06.852Z,29.82
2022-08-26T07:14:35.805Z,29.56
2022-08-26T07:17:03.925Z,29.69
2022-08-26T07:19:32.062Z,29.65
2022-08-26T07:22:01.987Z,29.87
2022-08-26T07:24:31.228Z,30.40
2022-08-26T07:27:03.167Z,30.41
2022-08-26T07:29:34.267Z,30.62
2022-08-26T07:32:02.615Z,30.73
2022-08-26T07:34:32.294Z,30.59
2022-08-26T07:37:02.038Z,30.61
2022-08-26T07:39:31.871Z,30.20
2022-08-26T07:42:07.555Z,29.85
2022-08-26T07:44:37.043Z,29.52
2022-08-26T07:47:10.508Z,29.63
2022-08-26T07:49:54.248Z,29.63
2022-08-26T07:52:26.362Z,29.75
2022-08-26T07:54:55.605Z,29.70
2022-08-26T07:57:25.176Z,29.33
2022-08-26T07:59:55.111Z,29.22
2022-08-26T08:02:26.772Z,29.19
2022-08-26T08:04:55.337Z,29.57
2022-08-26T08:07:25.773Z,29.40
2022-08-26T08:10:14.692Z,29.66
2022-08-26T08:12:44.593Z,29.86
2022-08-26T08:15:14.527Z,29.67
2022-08-26T08:17:43.936Z,29.55
2022-08-26T08:20:14.442Z,29.60
2022-08-26T08:22:42.653Z,29.37
2022-08-26T08:25:12.518Z,29.89
2022-08-26T08:27:45.232Z,30.06
2022-08-26T08:30:14.707Z,30.22
2022-08-26T08:32:49.317Z,30.20
2022-08-26T08:35:21.285Z,30.05
2022-08-26T08:37:52.293Z,30.05
2022-08-26T08:40:20.852Z,30.21
2022-08-26T08:42:55.903Z,29.74
2022-08-26T08:45:35.892Z,29.98
2022-08-26T08:48:08.257Z,30.10
2022-08-26T08:50:44.763Z,30.03
2022-08-26T08:53:17.386Z,30.16
2022-08-26T08:55:59.657Z,30.09
2022-08-26T08:58:41.350Z,30.42
2022-08-26T09:01:22.649Z,30.75
2022-08-26T09:04:05.944Z,30.83
2022-08-26T09:06:34.108Z,30.49
2022-08-26T09:09:04.193Z,30.66
2022-08-26T09:11:32.367Z,30.90
2022-08-26T09:14:02.016Z,30.84
2022-08-26T09:16:42.687Z,30.82
2022-08-26T09:19:22.071Z,30.84
2022-08-26T09:21:56.917Z,30.94
2022-08-26T09:24:28.367Z,30.91
2022-08-26T09:26:59.325Z,30.97
2022-08-26T09:29:30.983Z,31.10
2022-08-26T09:32:19.606Z,31.09
2022-08-26T09:34:58.226Z,31.03
2022-08-26T09:37:41.416Z,31.09
2022-08-26T09:40:17.383Z,31.16
2022-08-26T09:42:45.909Z,31.12
2022-08-26T09:45:29.447Z,30.91
2022-08-26T09:48:01.320Z,31.18
2022-08-26T09:50:32.143Z,31.33
2022-08-26T09:53:17.323Z,31.25
2022-08-26T09:55:52.421Z,31.42
2022-08-26T09:58:34.997Z,31.36
2022-08-26T10:01:09.614Z,31.53
2022-08-26T10:03:40.803Z,31.34
2022-08-26T10:06:24.150Z,31.49
2022-08-26T10:08:55.960Z,31.48
2022-08-26T10:11:27.529Z,31.69
2022-08-26T10:13:59.436Z,31.79
2022-08-26T10:16:36.773Z,31.75
2022-08-26T10:19:09.528Z,31.85
2022-08-26T10:21:44.118Z,31.53
2022-08-26T10:24:19.514Z,31.70
2022-08-26T10:27:03.907Z,31.89
2022-08-26T10:29:38.973Z,31.49
2022-08-26T10:32:15.378Z,31.83
2022-08-26T10:34:45.092Z,31.94
2022-08-26T10:37:17.062Z,31.96
2022-08-26T10:39:58.635Z,32.17
2022-08-26T10:42:33.275Z,32.06
2022-08-26T10:45:07.623Z,32.02
2022-08-26T10:47:48.431Z,32.21
2022-08-26T10:50:18.160Z,32.32
2022-08-26T10:53:04.525Z,32.49
2022-08-26T10:55:37.508Z,32.32
2022-08-26T10:58:26.310Z,32.43
2022-08-26T11:01:22.633Z,32.32
2022-08-26T11:04:00.487Z,32.18
2022-08-26T11:06:31.510Z,32.38
2022-08-26T11:09:01.794Z,32.61
2022-08-26T11:11:46.802Z,32.66
2022-08-26T11:14:53.060Z,32.76
2022-08-26T11:17:56.687Z,32.78
2022-08-26T11:20:41.596Z,32.79
2022-08-26T11:23:50.545Z,32.80
2022-08-26T11:26:37.525Z,32.72
2022-08-26T11:29:12.352Z,32.69
2022-08-26T11:31:56.237Z,32.90
2022-08-26T11:34:57.169Z,32.99
2022-08-26T11:37:30.989Z,32.89
2022-08-26T11:40:03.141Z,32.90
2022-08-26T11:42:37.708Z,32.86
2022-08-26T11:45:18.609Z,33.06
2022-08-26T11:47:49.419Z,33.14
2022-08-26T11:50:20.579Z,33.06
2022-08-26T11:52:55.759Z,33.10
2022-08-26T11:55:24.789Z,33.35
2022-08-26T11:57:55.622Z,33.47
2022-08-26T12:00:33.464Z,33.51
2022-08-26T12:03:06.325Z,33.64
2022-08-26T12:05:39.588Z,33.58
2022-08-26T12:08:13.396Z,33.47
2022-08-26T12:10:41.810Z,33.26
2022-08-26T12:13:21.620Z,33.42
2022-08-26T12:15:56.013Z,33.46
2022-08-26T12:18:29.371Z,33.49
2022-08-26T12:21:00.921Z,33.39
2022-08-26T12:23:41.367Z,33.23
2022-08-26T12:26:13.158Z,33.28
2022-08-26T12:28:46.704Z,33.24
2022-08-26T12:31:22.660Z,33.31
2022-08-26T12:33:51.250Z,33.51
2022-08-26T12:36:27.601Z,33.28
2022-08-26T12:38:58.736Z,33.26
2022-08-26T12:41:42.407Z,33.27
2022-08-26T12:44:31.025Z,33.30
2022-08-26T12:47:04.008Z,33.30
2022-08-26T12:49:32.375Z,33.27
2022-08-26T12:52:00.541Z,33.42
2022-08-26T12:54:52.441Z,33.51
2022-08-26T12:57:29.249Z,33.59
2022-08-26T13:00:28.524Z,33.64
2022-08-26T13:02:56.963Z,33.48
2022-08-26T13:05:28.860Z,33.51
2022-08-26T13:08:14.880Z,33.40
2022-08-26T13:10:46.454Z,33.25
2022-08-26T13:13:16.450Z,33.14
2022-08-26T13:15:44.887Z,33.07
2022-08-26T13:18:13.014Z,33.23
2022-08-26T13:20:45.020Z,33.28
2022-08-26T13:23:13.523Z,33.33
2022-08-26T13:25:42.134Z,33.42
2022-08-26T13:28:11.678Z,33.53
2022-08-26T13:30:49.921Z,33.69
2022-08-26T13:33:19.557Z,33.75
2022-08-26T13:35:48.559Z,33.38
